sensor_id;sensor_type;location;lat;lon;timestamp;P1;durP1;ratioP1;P2;durP2;ratioP2
21494;SDS011;10909;53.590;10.054;2023-04-19T00:00:36;5.97;;;3.37;;
21494;SDS011;10909;53.590;10.054;2023-04-19T00:03:02;5.40;;;3.80;;
21494;SDS011;10909;53.590;10.054;2023-04-19T00:05:28;4.43;;;3.20;;
21494;SDS011;10909;53.590;10.054;2023-04-19T00:07:54;5.17;;;3.50;;
21494;SDS011;10909;53.590;10.054;2023-04-19T00:10:19;7.13;;;3.20;;
21494;SDS011;10909;53.590;10.054;2023-04-19T00:12:45;5.80;;;3.30;;
21494;SDS011;10909;53.590;10.054;2023-04-19T00:15:11;4.87;;;3.37;;
21494;SDS011;10909;53.590;10.054;2023-04-19T00:17:37;4.53;;;3.30;;
21494;SDS011;10909;53.590;10.054;2023-04-19T00:20:03;4.47;;;3.50;;
21494;SDS011;10909;53.590;10.054;2023-04-19T00:22:30;5.00;;;3.30;;
21494;SDS011;10909;53.590;10.054;2023-04-19T00:24:55;4.60;;;3.30;;
21494;SDS011;10909;53.590;10.054;2023-04-19T00:27:22;5.37;;;3.30;;
21494;SDS011;10909;53.590;10.054;2023-04-19T00:29:48;4.90;;;3.57;;
21494;SDS011;10909;53.590;10.054;2023-04-19T00:32:14;5.27;;;3.30;;
21494;SDS011;10909;53.590;10.054;2023-04-19T00:34:40;4.97;;;3.67;;
21494;SDS011;10909;53.590;10.054;2023-04-19T00:37:07;5.43;;;3.67;;
21494;SDS011;10909;53.590;10.054;2023-04-19T00:39:33;3.77;;;3.13;;
21494;SDS011;10909;53.590;10.054;2023-04-19T00:41:59;5.07;;;3.50;;
21494;SDS011;10909;53.590;10.054;2023-04-19T00:44:27;4.17;;;2.87;;
21494;SDS011;10909;53.590;10.054;2023-04-19T00:46:52;4.57;;;3.27;;
21494;SDS011;10909;53.590;10.054;2023-04-19T00:49:20;4.50;;;3.00;;
21494;SDS011;10909;53.590;10.054;2023-04-19T00:51:47;3.63;;;2.90;;
21494;SDS011;10909;53.590;10.054;2023-04-19T00:54:14;3.83;;;2.90;;
21494;SDS011;10909;53.590;10.054;2023-04-19T00:56:40;4.23;;;2.80;;
21494;SDS011;10909;53.590;10.054;2023-04-19T00:59:08;3.63;;;2.70;;
21494;SDS011;10909;53.590;10.054;2023-04-19T01:01:34;3.70;;;2.83;;
21494;SDS011;10909;53.590;10.054;2023-04-19T01:04:02;4.63;;;2.70;;
21494;SDS011;10909;53.590;10.054;2023-04-19T01:06:29;5.17;;;2.60;;
21494;SDS011;10909;53.590;10.054;2023-04-19T01:08:55;3.43;;;2.80;;
21494;SDS011;10909;53.590;10.054;2023-04-19T01:11:22;4.50;;;2.20;;
21494;SDS011;10909;53.590;10.054;2023-04-19T01:13:48;3.10;;;2.67;;
21494;SDS011;10909;53.590;10.054;2023-04-19T01:16:14;4.27;;;2.60;;
21494;SDS011;10909;53.590;10.054;2023-04-19T01:18:40;3.53;;;2.33;;
21494;SDS011;10909;53.590;10.054;2023-04-19T01:21:06;3.67;;;2.20;;
21494;SDS011;10909;53.590;10.054;2023-04-19T01:23:33;2.67;;;2.30;;
21494;SDS011;10909;53.590;10.054;2023-04-19T01:26:02;3.37;;;2.50;;
21494;SDS011;10909;53.590;10.054;2023-04-19T01:28:28;3.33;;;2.20;;
21494;SDS011;10909;53.590;10.054;2023-04-19T01:30:54;2.60;;;2.20;;
21494;SDS011;10909;53.590;10.054;2023-04-19T01:33:20;2.53;;;2.23;;
21494;SDS011;10909;53.590;10.054;2023-04-19T01:35:46;3.70;;;2.30;;
21494;SDS011;10909;53.590;10.054;2023-04-19T01:38:12;3.07;;;2.00;;
21494;SDS011;10909;53.590;10.054;2023-04-19T01:40:38;3.23;;;2.17;;
21494;SDS011;10909;53.590;10.054;2023-04-19T01:43:05;3.80;;;2.33;;
21494;SDS011;10909;53.590;10.054;2023-04-19T01:45:31;2.10;;;1.90;;
21494;SDS011;10909;53.590;10.054;2023-04-19T01:47:58;3.67;;;1.90;;
21494;SDS011;10909;53.590;10.054;2023-04-19T01:50:26;2.37;;;1.77;;
21494;SDS011;10909;53.590;10.054;2023-04-19T01:52:52;4.17;;;2.00;;
21494;SDS011;10909;53.590;10.054;2023-04-19T01:55:18;3.40;;;2.27;;
21494;SDS011;10909;53.590;10.054;2023-04-19T01:57:44;2.70;;;2.10;;
21494;SDS011;10909;53.590;10.054;2023-04-19T02:00:10;3.40;;;2.10;;
21494;SDS011;10909;53.590;10.054;2023-04-19T02:02:36;3.00;;;1.93;;
21494;SDS011;10909;53.590;10.054;2023-04-19T02:05:06;3.17;;;2.30;;
21494;SDS011;10909;53.590;10.054;2023-04-19T02:07:33;2.50;;;1.97;;
21494;SDS011;10909;53.590;10.054;2023-04-19T02:10:02;2.47;;;2.03;;
21494;SDS011;10909;53.590;10.054;2023-04-19T02:12:30;3.57;;;2.13;;
21494;SDS011;10909;53.590;10.054;2023-04-19T02:14:56;2.50;;;2.20;;
21494;SDS011;10909;53.590;10.054;2023-04-19T02:17:25;2.80;;;2.03;;
21494;SDS011;10909;53.590;10.054;2023-04-19T02:19:51;2.83;;;2.03;;
21494;SDS011;10909;53.590;10.054;2023-04-19T02:22:17;2.93;;;2.23;;
21494;SDS011;10909;53.590;10.054;2023-04-19T02:24:43;3.67;;;2.50;;
21494;SDS011;10909;53.590;10.054;2023-04-19T02:27:09;5.73;;;2.30;;
21494;SDS011;10909;53.590;10.054;2023-04-19T02:29:36;3.50;;;2.30;;
21494;SDS011;10909;53.590;10.054;2023-04-19T02:32:02;3.53;;;2.20;;
21494;SDS011;10909;53.590;10.054;2023-04-19T02:34:30;4.13;;;2.60;;
21494;SDS011;10909;53.590;10.054;2023-04-19T02:36:58;3.20;;;2.20;;
21494;SDS011;10909;53.590;10.054;2023-04-19T02:39:24;3.63;;;2.20;;
21494;SDS011;10909;53.590;10.054;2023-04-19T02:41:50;3.33;;;2.50;;
21494;SDS011;10909;53.590;10.054;2023-04-19T02:44:17;3.90;;;2.43;;
21494;SDS011;10909;53.590;10.054;2023-04-19T02:46:49;3.47;;;2.00;;
21494;SDS011;10909;53.590;10.054;2023-04-19T02:49:16;3.37;;;2.37;;
21494;SDS011;10909;53.590;10.054;2023-04-19T02:51:42;3.40;;;2.10;;
21494;SDS011;10909;53.590;10.054;2023-04-19T02:54:07;2.90;;;2.20;;
21494;SDS011;10909;53.590;10.054;2023-04-19T02:56:33;3.57;;;2.20;;
21494;SDS011;10909;53.590;10.054;2023-04-19T02:58:59;2.40;;;2.20;;
21494;SDS011;10909;53.590;10.054;2023-04-19T03:01:27;2.77;;;2.13;;
21494;SDS011;10909;53.590;10.054;2023-04-19T03:03:54;2.83;;;2.07;;
21494;SDS011;10909;53.590;10.054;2023-04-19T03:06:20;4.57;;;2.23;;
21494;SDS011;10909;53.590;10.054;2023-04-19T03:08:46;2.03;;;1.87;;
21494;SDS011;10909;53.590;10.054;2023-04-19T03:11:12;2.03;;;1.80;;
21494;SDS011;10909;53.590;10.054;2023-04-19T03:13:39;2.37;;;2.07;;
21494;SDS011;10909;53.590;10.054;2023-04-19T03:16:05;3.00;;;2.00;;
21494;SDS011;10909;53.590;10.054;2023-04-19T03:18:31;3.50;;;2.00;;
21494;SDS011;10909;53.590;10.054;2023-04-19T03:20:57;2.10;;;1.73;;
21494;SDS011;10909;53.590;10.054;2023-04-19T03:23:24;2.27;;;1.70;;
21494;SDS011;10909;53.590;10.054;2023-04-19T03:25:53;2.47;;;2.00;;
21494;SDS011;10909;53.590;10.054;2023-04-19T03:28:20;3.20;;;1.70;;
21494;SDS011;10909;53.590;10.054;2023-04-19T03:30:46;2.30;;;1.70;;
21494;SDS011;10909;53.590;10.054;2023-04-19T03:33:11;3.00;;;2.10;;
21494;SDS011;10909;53.590;10.054;2023-04-19T03:35:37;2.83;;;2.13;;
21494;SDS011;10909;53.590;10.054;2023-04-19T03:38:03;3.60;;;1.83;;
21494;SDS011;10909;53.590;10.054;2023-04-19T03:40:32;2.70;;;2.00;;
21494;SDS011;10909;53.590;10.054;2023-04-19T03:42:58;2.07;;;1.57;;
21494;SDS011;10909;53.590;10.054;2023-04-19T03:45:23;2.70;;;2.00;;
21494;SDS011;10909;53.590;10.054;2023-04-19T03:47:50;2.50;;;1.80;;
21494;SDS011;10909;53.590;10.054;2023-04-19T03:50:16;3.07;;;2.07;;
21494;SDS011;10909;53.590;10.054;2023-04-19T03:52:42;2.37;;;2.13;;
21494;SDS011;10909;53.590;10.054;2023-04-19T03:55:08;2.10;;;1.70;;
21494;SDS011;10909;53.590;10.054;2023-04-19T03:57:34;2.83;;;2.10;;
21494;SDS011;10909;53.590;10.054;2023-04-19T04:00:02;1.57;;;1.47;;
21494;SDS011;10909;53.590;10.054;2023-04-19T04:02:31;2.43;;;1.80;;
21494;SDS011;10909;53.590;10.054;2023-04-19T04:04:58;2.37;;;1.80;;
21494;SDS011;10909;53.590;10.054;2023-04-19T04:07:25;2.40;;;1.73;;
21494;SDS011;10909;53.590;10.054;2023-04-19T04:09:52;2.80;;;2.00;;
21494;SDS011;10909;53.590;10.054;2023-04-19T04:12:20;2.30;;;1.80;;
21494;SDS011;10909;53.590;10.054;2023-04-19T04:14:46;3.63;;;2.10;;
21494;SDS011;10909;53.590;10.054;2023-04-19T04:17:12;2.10;;;1.70;;
21494;SDS011;10909;53.590;10.054;2023-04-19T04:19:38;2.87;;;1.90;;
21494;SDS011;10909;53.590;10.054;2023-04-19T04:22:05;3.60;;;1.90;;
21494;SDS011;10909;53.590;10.054;2023-04-19T04:24:36;2.73;;;1.93;;
21494;SDS011;10909;53.590;10.054;2023-04-19T04:27:02;2.77;;;1.87;;
21494;SDS011;10909;53.590;10.054;2023-04-19T04:29:28;2.60;;;1.70;;
21494;SDS011;10909;53.590;10.054;2023-04-19T04:31:56;3.30;;;1.90;;
21494;SDS011;10909;53.590;10.054;2023-04-19T04:34:22;4.47;;;1.90;;
21494;SDS011;10909;53.590;10.054;2023-04-19T04:36:48;2.47;;;1.90;;
21494;SDS011;10909;53.590;10.054;2023-04-19T04:39:14;2.20;;;1.87;;
21494;SDS011;10909;53.590;10.054;2023-04-19T04:41:40;2.83;;;2.23;;
21494;SDS011;10909;53.590;10.054;2023-04-19T04:44:06;2.47;;;1.90;;
21494;SDS011;10909;53.590;10.054;2023-04-19T04:46:33;2.43;;;2.23;;
21494;SDS011;10909;53.590;10.054;2023-04-19T04:49:00;2.30;;;1.70;;
21494;SDS011;10909;53.590;10.054;2023-04-19T04:51:27;1.73;;;1.63;;
21494;SDS011;10909;53.590;10.054;2023-04-19T04:53:56;2.27;;;1.90;;
21494;SDS011;10909;53.590;10.054;2023-04-19T04:56:22;2.97;;;1.97;;
21494;SDS011;10909;53.590;10.054;2023-04-19T04:58:49;2.40;;;1.90;;
21494;SDS011;10909;53.590;10.054;2023-04-19T05:01:15;2.27;;;1.83;;
21494;SDS011;10909;53.590;10.054;2023-04-19T05:03:43;2.27;;;1.77;;
21494;SDS011;10909;53.590;10.054;2023-04-19T05:06:09;3.17;;;1.90;;
21494;SDS011;10909;53.590;10.054;2023-04-19T05:08:35;1.67;;;1.57;;
21494;SDS011;10909;53.590;10.054;2023-04-19T05:11:07;3.97;;;1.80;;
21494;SDS011;10909;53.590;10.054;2023-04-19T05:13:33;1.60;;;1.50;;
21494;SDS011;10909;53.590;10.054;2023-04-19T05:15:59;2.10;;;1.50;;
21494;SDS011;10909;53.590;10.054;2023-04-19T05:18:31;2.70;;;1.50;;
21494;SDS011;10909;53.590;10.054;2023-04-19T05:20:57;2.13;;;1.77;;
21494;SDS011;10909;53.590;10.054;2023-04-19T05:23:23;2.10;;;1.77;;
21494;SDS011;10909;53.590;10.054;2023-04-19T05:25:48;1.13;;;1.00;;
21494;SDS011;10909;53.590;10.054;2023-04-19T05:28:14;1.77;;;1.60;;
21494;SDS011;10909;53.590;10.054;2023-04-19T05:30:40;6.20;;;1.80;;
21494;SDS011;10909;53.590;10.054;2023-04-19T05:33:05;2.83;;;1.60;;
21494;SDS011;10909;53.590;10.054;2023-04-19T05:35:31;3.50;;;1.63;;
21494;SDS011;10909;53.590;10.054;2023-04-19T05:37:57;1.43;;;1.33;;
21494;SDS011;10909;53.590;10.054;2023-04-19T05:40:22;1.50;;;1.40;;
21494;SDS011;10909;53.590;10.054;2023-04-19T05:42:48;2.23;;;1.53;;
21494;SDS011;10909;53.590;10.054;2023-04-19T05:45:14;1.33;;;1.23;;
21494;SDS011;10909;53.590;10.054;2023-04-19T05:47:42;2.90;;;1.53;;
21494;SDS011;10909;53.590;10.054;2023-04-19T05:50:08;2.13;;;1.40;;
21494;SDS011;10909;53.590;10.054;2023-04-19T05:52:34;2.27;;;1.60;;
21494;SDS011;10909;53.590;10.054;2023-04-19T05:54:59;1.30;;;1.20;;
21494;SDS011;10909;53.590;10.054;2023-04-19T05:57:26;1.77;;;1.30;;
21494;SDS011;10909;53.590;10.054;2023-04-19T05:59:52;1.57;;;1.10;;
21494;SDS011;10909;53.590;10.054;2023-04-19T06:02:18;1.80;;;1.40;;
21494;SDS011;10909;53.590;10.054;2023-04-19T06:04:43;1.30;;;1.20;;
21494;SDS011;10909;53.590;10.054;2023-04-19T06:07:09;1.40;;;1.10;;
21494;SDS011;10909;53.590;10.054;2023-04-19T06:09:35;2.63;;;1.40;;
21494;SDS011;10909;53.590;10.054;2023-04-19T06:12:00;2.27;;;1.50;;
21494;SDS011;10909;53.590;10.054;2023-04-19T06:14:26;1.20;;;1.10;;
21494;SDS011;10909;53.590;10.054;2023-04-19T06:16:55;1.87;;;1.20;;
21494;SDS011;10909;53.590;10.054;2023-04-19T06:19:21;1.50;;;1.20;;
21494;SDS011;10909;53.590;10.054;2023-04-19T06:21:46;1.70;;;1.37;;
21494;SDS011;10909;53.590;10.054;2023-04-19T06:24:12;1.20;;;1.10;;
21494;SDS011;10909;53.590;10.054;2023-04-19T06:26:38;1.93;;;1.13;;
21494;SDS011;10909;53.590;10.054;2023-04-19T06:29:03;1.33;;;1.03;;
21494;SDS011;10909;53.590;10.054;2023-04-19T06:31:31;1.20;;;1.10;;
21494;SDS011;10909;53.590;10.054;2023-04-19T06:33:57;1.03;;;0.93;;
21494;SDS011;10909;53.590;10.054;2023-04-19T06:36:23;1.20;;;1.10;;
21494;SDS011;10909;53.590;10.054;2023-04-19T06:38:49;1.83;;;1.20;;
21494;SDS011;10909;53.590;10.054;2023-04-19T06:41:15;1.60;;;1.03;;
21494;SDS011;10909;53.590;10.054;2023-04-19T06:43:41;1.20;;;1.00;;
21494;SDS011;10909;53.590;10.054;2023-04-19T06:46:08;1.60;;;1.10;;
21494;SDS011;10909;53.590;10.054;2023-04-19T06:48:34;1.10;;;1.00;;
21494;SDS011;10909;53.590;10.054;2023-04-19T06:51:00;1.03;;;0.90;;
21494;SDS011;10909;53.590;10.054;2023-04-19T06:53:26;1.30;;;1.00;;
21494;SDS011;10909;53.590;10.054;2023-04-19T06:55:57;0.90;;;0.90;;
21494;SDS011;10909;53.590;10.054;2023-04-19T06:58:26;1.63;;;0.80;;
21494;SDS011;10909;53.590;10.054;2023-04-19T07:00:52;1.43;;;1.10;;
21494;SDS011;10909;53.590;10.054;2023-04-19T07:03:19;2.13;;;0.93;;
21494;SDS011;10909;53.590;10.054;2023-04-19T07:05:47;1.10;;;1.00;;
21494;SDS011;10909;53.590;10.054;2023-04-19T07:08:13;0.77;;;0.77;;
21494;SDS011;10909;53.590;10.054;2023-04-19T07:10:40;1.30;;;1.00;;
21494;SDS011;10909;53.590;10.054;2023-04-19T07:13:07;1.00;;;0.90;;
21494;SDS011;10909;53.590;10.054;2023-04-19T07:15:36;1.10;;;0.80;;
21494;SDS011;10909;53.590;10.054;2023-04-19T07:18:02;0.93;;;0.73;;
21494;SDS011;10909;53.590;10.054;2023-04-19T07:20:27;0.93;;;0.80;;
21494;SDS011;10909;53.590;10.054;2023-04-19T07:22:55;1.27;;;1.00;;
21494;SDS011;10909;53.590;10.054;2023-04-19T07:25:23;0.70;;;0.70;;
21494;SDS011;10909;53.590;10.054;2023-04-19T07:27:52;0.83;;;0.80;;
21494;SDS011;10909;53.590;10.054;2023-04-19T07:30:18;1.60;;;0.73;;
21494;SDS011;10909;53.590;10.054;2023-04-19T07:32:46;1.07;;;0.80;;
21494;SDS011;10909;53.590;10.054;2023-04-19T07:35:15;2.50;;;0.90;;
21494;SDS011;10909;53.590;10.054;2023-04-19T07:37:43;0.83;;;0.70;;
21494;SDS011;10909;53.590;10.054;2023-04-19T07:40:11;1.00;;;0.83;;
21494;SDS011;10909;53.590;10.054;2023-04-19T07:42:41;1.57;;;1.20;;
21494;SDS011;10909;53.590;10.054;2023-04-19T07:45:08;2.07;;;0.70;;
21494;SDS011;10909;53.590;10.054;2023-04-19T07:47:36;0.90;;;0.80;;
21494;SDS011;10909;53.590;10.054;2023-04-19T07:50:04;1.27;;;0.70;;
21494;SDS011;10909;53.590;10.054;2023-04-19T07:52:34;2.10;;;0.77;;
21494;SDS011;10909;53.590;10.054;2023-04-19T07:55:00;0.97;;;0.80;;
21494;SDS011;10909;53.590;10.054;2023-04-19T07:57:27;1.10;;;0.90;;
21494;SDS011;10909;53.590;10.054;2023-04-19T07:59:52;1.10;;;0.80;;
21494;SDS011;10909;53.590;10.054;2023-04-19T08:02:25;0.70;;;0.70;;
21494;SDS011;10909;53.590;10.054;2023-04-19T08:04:54;1.23;;;0.80;;
21494;SDS011;10909;53.590;10.054;2023-04-19T08:07:21;1.10;;;0.90;;
21494;SDS011;10909;53.590;10.054;2023-04-19T08:09:55;0.80;;;0.80;;
21494;SDS011;10909;53.590;10.054;2023-04-19T08:12:23;0.63;;;0.63;;
21494;SDS011;10909;53.590;10.054;2023-04-19T08:14:50;0.73;;;0.73;;
21494;SDS011;10909;53.590;10.054;2023-04-19T08:17:18;1.23;;;0.90;;
21494;SDS011;10909;53.590;10.054;2023-04-19T08:19:46;1.53;;;1.03;;
21494;SDS011;10909;53.590;10.054;2023-04-19T08:22:15;0.70;;;0.70;;
21494;SDS011;10909;53.590;10.054;2023-04-19T08:24:43;1.13;;;0.80;;
21494;SDS011;10909;53.590;10.054;2023-04-19T08:27:09;1.40;;;0.87;;
21494;SDS011;10909;53.590;10.054;2023-04-19T08:29:36;1.30;;;1.00;;
21494;SDS011;10909;53.590;10.054;2023-04-19T08:32:03;1.30;;;0.90;;
21494;SDS011;10909;53.590;10.054;2023-04-19T08:34:33;2.00;;;0.80;;
21494;SDS011;10909;53.590;10.054;2023-04-19T08:37:01;1.40;;;1.10;;
21494;SDS011;10909;53.590;10.054;2023-04-19T08:39:28;1.23;;;0.90;;
21494;SDS011;10909;53.590;10.054;2023-04-19T08:41:56;1.00;;;0.90;;
21494;SDS011;10909;53.590;10.054;2023-04-19T08:44:23;1.20;;;0.90;;
21494;SDS011;10909;53.590;10.054;2023-04-19T08:46:50;1.20;;;1.07;;
21494;SDS011;10909;53.590;10.054;2023-04-19T08:49:18;1.47;;;1.03;;
21494;SDS011;10909;53.590;10.054;2023-04-19T08:51:47;1.47;;;1.00;;
21494;SDS011;10909;53.590;10.054;2023-04-19T08:54:14;1.00;;;0.90;;
21494;SDS011;10909;53.590;10.054;2023-04-19T08:56:40;1.50;;;1.10;;
21494;SDS011;10909;53.590;10.054;2023-04-19T08:59:09;2.17;;;0.83;;
21494;SDS011;10909;53.590;10.054;2023-04-19T09:01:35;0.80;;;0.80;;
21494;SDS011;10909;53.590;10.054;2023-04-19T09:04:04;1.13;;;0.80;;
21494;SDS011;10909;53.590;10.054;2023-04-19T09:06:38;2.43;;;1.13;;
21494;SDS011;10909;53.590;10.054;2023-04-19T09:09:15;1.30;;;0.90;;
21494;SDS011;10909;53.590;10.054;2023-04-19T09:11:48;1.33;;;1.23;;
21494;SDS011;10909;53.590;10.054;2023-04-19T09:14:17;1.90;;;1.30;;
21494;SDS011;10909;53.590;10.054;2023-04-19T09:16:44;1.10;;;1.00;;
21494;SDS011;10909;53.590;10.054;2023-04-19T09:19:12;2.50;;;1.45;;
21494;SDS011;10909;53.590;10.054;2023-04-19T09:21:38;2.00;;;1.00;;
21494;SDS011;10909;53.590;10.054;2023-04-19T09:24:05;1.63;;;1.17;;
21494;SDS011;10909;53.590;10.054;2023-04-19T09:26:31;1.92;;;1.10;;
21494;SDS011;10909;53.590;10.054;2023-04-19T09:28:58;1.33;;;1.20;;
21494;SDS011;10909;53.590;10.054;2023-04-19T09:31:31;1.80;;;1.10;;
21494;SDS011;10909;53.590;10.054;2023-04-19T09:34:11;1.03;;;0.93;;
21494;SDS011;10909;53.590;10.054;2023-04-19T09:36:38;1.35;;;1.08;;
21494;SDS011;10909;53.590;10.054;2023-04-19T09:39:05;1.75;;;1.25;;
21494;SDS011;10909;53.590;10.054;2023-04-19T09:41:31;1.65;;;1.15;;
21494;SDS011;10909;53.590;10.054;2023-04-19T09:44:12;2.53;;;1.35;;
21494;SDS011;10909;53.590;10.054;2023-04-19T09:46:40;1.33;;;1.00;;
21494;SDS011;10909;53.590;10.054;2023-04-19T09:49:16;1.20;;;1.10;;
21494;SDS011;10909;53.590;10.054;2023-04-19T09:51:51;2.53;;;1.23;;
21494;SDS011;10909;53.590;10.054;2023-04-19T09:54:19;1.85;;;1.45;;
21494;SDS011;10909;53.590;10.054;2023-04-19T09:56:52;1.70;;;1.20;;
21494;SDS011;10909;53.590;10.054;2023-04-19T09:59:18;1.63;;;1.30;;
21494;SDS011;10909;53.590;10.054;2023-04-19T10:01:45;2.40;;;1.30;;
21494;SDS011;10909;53.590;10.054;2023-04-19T10:04:14;1.88;;;1.60;;
21494;SDS011;10909;53.590;10.054;2023-04-19T10:06:47;1.60;;;1.35;;
21494;SDS011;10909;53.590;10.054;2023-04-19T10:09:16;1.35;;;1.25;;
21494;SDS011;10909;53.590;10.054;2023-04-19T10:11:46;5.13;;;1.58;;
21494;SDS011;10909;53.590;10.054;2023-04-19T10:14:15;1.42;;;1.33;;
21494;SDS011;10909;53.590;10.054;2023-04-19T10:16:46;4.68;;;1.60;;
21494;SDS011;10909;53.590;10.054;2023-04-19T10:19:14;3.00;;;1.40;;
21494;SDS011;10909;53.590;10.054;2023-04-19T10:21:42;2.92;;;1.88;;
21494;SDS011;10909;53.590;10.054;2023-04-19T10:24:11;2.47;;;1.55;;
21494;SDS011;10909;53.590;10.054;2023-04-19T10:32:28;3.85;;;1.30;;
21494;SDS011;10909;53.590;10.054;2023-04-19T10:35:07;2.70;;;1.58;;
21494;SDS011;10909;53.590;10.054;2023-04-19T10:37:34;3.47;;;1.45;;
21494;SDS011;10909;53.590;10.054;2023-04-19T10:40:06;3.83;;;1.65;;
21494;SDS011;10909;53.590;10.054;2023-04-19T10:45:42;1.52;;;1.40;;
21494;SDS011;10909;53.590;10.054;2023-04-19T10:51:03;1.50;;;1.40;;
21494;SDS011;10909;53.590;10.054;2023-04-19T10:56:17;1.40;;;1.30;;
21494;SDS011;10909;53.590;10.054;2023-04-19T11:01:45;3.83;;;1.75;;
21494;SDS011;10909;53.590;10.054;2023-04-19T11:04:18;3.40;;;1.58;;
21494;SDS011;10909;53.590;10.054;2023-04-19T11:09:23;5.85;;;1.63;;
21494;SDS011;10909;53.590;10.054;2023-04-19T11:12:11;1.40;;;1.20;;
21494;SDS011;10909;53.590;10.054;2023-04-19T11:14:41;1.85;;;1.20;;
21494;SDS011;10909;53.590;10.054;2023-04-19T11:17:19;2.03;;;1.80;;
21494;SDS011;10909;53.590;10.054;2023-04-19T11:22:30;4.00;;;1.58;;
21494;SDS011;10909;53.590;10.054;2023-04-19T11:25:07;1.90;;;1.50;;
21494;SDS011;10909;53.590;10.054;2023-04-19T11:27:35;1.45;;;1.30;;
21494;SDS011;10909;53.590;10.054;2023-04-19T11:30:08;2.85;;;1.35;;
21494;SDS011;10909;53.590;10.054;2023-04-19T11:32:36;2.22;;;1.60;;
21494;SDS011;10909;53.590;10.054;2023-04-19T11:35:03;3.17;;;1.50;;
21494;SDS011;10909;53.590;10.054;2023-04-19T11:37:34;2.95;;;1.40;;
21494;SDS011;10909;53.590;10.054;2023-04-19T11:40:04;2.15;;;1.45;;
21494;SDS011;10909;53.590;10.054;2023-04-19T11:42:31;1.95;;;1.70;;
21494;SDS011;10909;53.590;10.054;2023-04-19T11:44:57;2.65;;;1.38;;
21494;SDS011;10909;53.590;10.054;2023-04-19T11:47:24;1.35;;;1.25;;
21494;SDS011;10909;53.590;10.054;2023-04-19T11:49:50;2.53;;;1.73;;
21494;SDS011;10909;53.590;10.054;2023-04-19T11:52:20;2.28;;;1.80;;
21494;SDS011;10909;53.590;10.054;2023-04-19T11:54:53;3.00;;;1.50;;
21494;SDS011;10909;53.590;10.054;2023-04-19T11:57:29;1.80;;;1.60;;
21494;SDS011;10909;53.590;10.054;2023-04-19T12:00:02;3.53;;;1.48;;
21494;SDS011;10909;53.590;10.054;2023-04-19T12:02:35;2.97;;;1.55;;
21494;SDS011;10909;53.590;10.054;2023-04-19T12:05:06;3.45;;;1.73;;
21494;SDS011;10909;53.590;10.054;2023-04-19T12:07:37;3.47;;;1.65;;
21494;SDS011;10909;53.590;10.054;2023-04-19T12:10:31;2.10;;;1.63;;
21494;SDS011;10909;53.590;10.054;2023-04-19T12:12:59;3.42;;;1.40;;
21494;SDS011;10909;53.590;10.054;2023-04-19T12:15:40;2.30;;;1.45;;
21494;SDS011;10909;53.590;10.054;2023-04-19T12:18:13;1.40;;;1.23;;
21494;SDS011;10909;53.590;10.054;2023-04-19T12:20:48;1.92;;;1.58;;
21494;SDS011;10909;53.590;10.054;2023-04-19T12:23:17;2.20;;;1.52;;
21494;SDS011;10909;53.590;10.054;2023-04-19T12:25:47;2.30;;;1.42;;
21494;SDS011;10909;53.590;10.054;2023-04-19T12:28:14;3.17;;;1.40;;
21494;SDS011;10909;53.590;10.054;2023-04-19T12:30:41;3.20;;;1.50;;
21494;SDS011;10909;53.590;10.054;2023-04-19T12:33:08;4.10;;;1.50;;
21494;SDS011;10909;53.590;10.054;2023-04-19T12:35:38;2.50;;;1.33;;
21494;SDS011;10909;53.590;10.054;2023-04-19T12:38:07;3.22;;;1.40;;
21494;SDS011;10909;53.590;10.054;2023-04-19T12:40:35;2.15;;;1.50;;
21494;SDS011;10909;53.590;10.054;2023-04-19T12:43:05;1.40;;;1.30;;
21494;SDS011;10909;53.590;10.054;2023-04-19T12:45:33;2.63;;;1.58;;
21494;SDS011;10909;53.590;10.054;2023-04-19T12:48:03;1.77;;;1.35;;
21494;SDS011;10909;53.590;10.054;2023-04-19T12:50:32;1.40;;;1.23;;
21494;SDS011;10909;53.590;10.054;2023-04-19T12:53:07;2.10;;;1.45;;
21494;SDS011;10909;53.590;10.054;2023-04-19T12:55:34;2.30;;;1.58;;
21494;SDS011;10909;53.590;10.054;2023-04-19T12:58:01;2.67;;;1.30;;
21494;SDS011;10909;53.590;10.054;2023-04-19T13:00:28;2.13;;;1.17;;
21494;SDS011;10909;53.590;10.054;2023-04-19T13:02:55;1.25;;;1.15;;
21494;SDS011;10909;53.590;10.054;2023-04-19T13:05:26;1.92;;;1.45;;
21494;SDS011;10909;53.590;10.054;2023-04-19T13:07:55;1.65;;;1.13;;
21494;SDS011;10909;53.590;10.054;2023-04-19T13:10:29;2.25;;;1.35;;
21494;SDS011;10909;53.590;10.054;2023-04-19T13:12:58;2.80;;;1.40;;
21494;SDS011;10909;53.590;10.054;2023-04-19T13:15:25;2.08;;;1.42;;
21494;SDS011;10909;53.590;10.054;2023-04-19T13:17:52;2.88;;;1.50;;
21494;SDS011;10909;53.590;10.054;2023-04-19T13:20:20;2.90;;;1.35;;
21494;SDS011;10909;53.590;10.054;2023-04-19T13:22:54;3.08;;;1.50;;
21494;SDS011;10909;53.590;10.054;2023-04-19T13:25:21;2.33;;;1.33;;
21494;SDS011;10909;53.590;10.054;2023-04-19T13:27:50;3.42;;;1.70;;
21494;SDS011;10909;53.590;10.054;2023-04-19T13:30:22;1.90;;;1.55;;
21494;SDS011;10909;53.590;10.054;2023-04-19T13:32:50;1.60;;;1.50;;
21494;SDS011;10909;53.590;10.054;2023-04-19T13:35:18;3.17;;;1.63;;
21494;SDS011;10909;53.590;10.054;2023-04-19T13:37:45;2.47;;;1.55;;
21494;SDS011;10909;53.590;10.054;2023-04-19T13:40:13;1.98;;;1.48;;
21494;SDS011;10909;53.590;10.054;2023-04-19T13:42:42;1.85;;;1.30;;
21494;SDS011;10909;53.590;10.054;2023-04-19T13:45:08;1.63;;;1.50;;
21494;SDS011;10909;53.590;10.054;2023-04-19T13:47:39;3.22;;;1.35;;
21494;SDS011;10909;53.590;10.054;2023-04-19T13:50:09;1.92;;;1.50;;
21494;SDS011;10909;53.590;10.054;2023-04-19T13:52:49;2.25;;;1.63;;
21494;SDS011;10909;53.590;10.054;2023-04-19T13:55:28;4.28;;;1.73;;
21494;SDS011;10909;53.590;10.054;2023-04-19T13:57:55;2.08;;;1.50;;
21494;SDS011;10909;53.590;10.054;2023-04-19T14:00:22;3.85;;;1.60;;
21494;SDS011;10909;53.590;10.054;2023-04-19T14:02:53;3.45;;;1.50;;
21494;SDS011;10909;53.590;10.054;2023-04-19T14:05:21;2.33;;;1.70;;
21494;SDS011;10909;53.590;10.054;2023-04-19T14:07:53;2.97;;;1.50;;
21494;SDS011;10909;53.590;10.054;2023-04-19T14:10:23;3.28;;;1.42;;
21494;SDS011;10909;53.590;10.054;2023-04-19T14:12:58;1.52;;;1.42;;
21494;SDS011;10909;53.590;10.054;2023-04-19T14:15:26;1.60;;;1.50;;
21494;SDS011;10909;53.590;10.054;2023-04-19T14:17:58;2.05;;;1.60;;
21494;SDS011;10909;53.590;10.054;2023-04-19T14:20:26;2.60;;;1.70;;
21494;SDS011;10909;53.590;10.054;2023-04-19T14:22:54;4.68;;;1.50;;
21494;SDS011;10909;53.590;10.054;2023-04-19T14:25:24;1.40;;;1.10;;
21494;SDS011;10909;53.590;10.054;2023-04-19T14:27:53;2.55;;;1.50;;
21494;SDS011;10909;53.590;10.054;2023-04-19T14:30:27;1.73;;;1.30;;
21494;SDS011;10909;53.590;10.054;2023-04-19T14:33:00;1.80;;;1.58;;
21494;SDS011;10909;53.590;10.054;2023-04-19T14:35:35;2.47;;;1.45;;
21494;SDS011;10909;53.590;10.054;2023-04-19T14:38:12;2.42;;;1.70;;
21494;SDS011;10909;53.590;10.054;2023-04-19T14:40:47;3.55;;;1.60;;
21494;SDS011;10909;53.590;10.054;2023-04-19T14:43:14;2.35;;;1.73;;
21494;SDS011;10909;53.590;10.054;2023-04-19T14:45:43;3.97;;;1.60;;
21494;SDS011;10909;53.590;10.054;2023-04-19T14:48:16;2.50;;;1.30;;
21494;SDS011;10909;53.590;10.054;2023-04-19T14:50:47;2.25;;;1.50;;
21494;SDS011;10909;53.590;10.054;2023-04-19T14:53:17;1.55;;;1.30;;
21494;SDS011;10909;53.590;10.054;2023-04-19T14:55:47;1.73;;;1.33;;
21494;SDS011;10909;53.590;10.054;2023-04-19T14:58:14;2.42;;;1.58;;
21494;SDS011;10909;53.590;10.054;2023-04-19T15:00:48;3.22;;;1.55;;